createdAt,value
2023-04-18T00:02:23.258Z,16.95
2023-04-18T00:07:27.580Z,16.42
2023-04-18T00:12:30.687Z,16.80
2023-04-18T00:17:33.438Z,16.63
2023-04-18T00:22:42.271Z,17.70
2023-04-18T00:27:45.084Z,18.27
2023-04-18T00:32:47.863Z,19.83
2023-04-18T00:37:52.325Z,20.88
2023-04-18T00:42:55.038Z,21.08
2023-04-18T00:47:57.865Z,20.83
2023-04-18T00:53:02.144Z,21.52
2023-04-18T00:58:06.182Z,21.33
2023-04-18T01:03:10.780Z,19.63
2023-04-18T01:08:15.340Z,20.67
2023-04-18T01:13:19.437Z,20.00
2023-04-18T01:18:24.336Z,21.13
2023-04-18T01:23:28.444Z,20.95
2023-04-18T01:28:32.525Z,20.13
2023-04-18T01:33:35.221Z,20.75
2023-04-18T01:38:37.956Z,22.05
2023-04-18T01:43:42.154Z,21.90
2023-04-18T01:48:45.482Z,21.90
2023-04-18T01:53:48.420Z,21.98
2023-04-18T01:58:52.559Z,21.80
2023-04-18T02:03:55.721Z,21.92
2023-04-18T02:08:58.710Z,21.40
2023-04-18T02:14:02.818Z,20.90
2023-04-18T02:19:06.321Z,20.58
2023-04-18T02:24:09.056Z,20.35
2023-04-18T02:29:13.249Z,20.38
2023-04-18T02:34:16.633Z,20.38
2023-04-18T02:39:19.437Z,21.15
2023-04-18T02:44:23.643Z,21.65
2023-04-18T02:49:26.366Z,20.67
2023-04-18T02:54:29.188Z,20.10
2023-04-18T02:59:39.662Z,19.92
2023-04-18T03:04:42.422Z,22.00
2023-04-18T03:09:46.402Z,19.38
2023-04-18T03:14:56.096Z,20.25
2023-04-18T03:19:58.876Z,20.65
2023-04-18T03:25:01.910Z,20.85
2023-04-18T03:30:18.768Z,18.65
2023-04-18T03:35:27.309Z,18.05
2023-04-18T03:40:30.749Z,19.25
2023-04-18T03:45:41.201Z,16.98
2023-04-18T03:50:44.184Z,17.30
2023-04-18T03:55:47.389Z,17.17
2023-04-18T04:00:55.184Z,17.27
2023-04-18T04:05:58.237Z,16.83
2023-04-18T04:11:01.290Z,16.00
2023-04-18T04:16:07.072Z,16.42
2023-04-18T04:21:10.076Z,16.30
2023-04-18T04:26:23.062Z,15.98
2023-04-18T04:31:35.802Z,15.80
2023-04-18T04:36:41.125Z,16.27
2023-04-18T04:41:44.832Z,15.13
2023-04-18T04:46:49.776Z,15.38
2023-04-18T04:51:57.818Z,14.95
2023-04-18T04:57:01.526Z,14.95
2023-04-18T05:02:05.921Z,13.75
2023-04-18T05:07:08.809Z,13.32
2023-04-18T05:12:11.539Z,13.77
2023-04-18T05:17:15.763Z,13.52
2023-04-18T05:22:18.493Z,12.45
2023-04-18T05:27:21.588Z,13.52
2023-04-18T05:32:25.731Z,13.18
2023-04-18T05:37:28.470Z,12.02
2023-04-18T05:42:31.167Z,11.20
2023-04-18T05:47:35.542Z,10.98
2023-04-18T05:52:38.944Z,10.90
2023-04-18T05:57:41.821Z,11.23
2023-04-18T06:02:46.102Z,11.85
2023-04-18T06:07:49.082Z,7.82
2023-04-18T06:12:51.858Z,7.60
2023-04-18T06:17:56.025Z,8.77
2023-04-18T06:22:58.805Z,7.93
2023-04-18T06:28:01.575Z,7.40
2023-04-18T06:33:05.806Z,8.00
2023-04-18T06:38:08.764Z,8.75
2023-04-18T06:43:11.501Z,8.68
2023-04-18T06:48:16.606Z,8.07
2023-04-18T06:53:19.393Z,7.88
2023-04-18T06:58:22.100Z,7.35
2023-04-18T07:03:26.990Z,7.60
2023-04-18T07:08:29.846Z,7.50
2023-04-18T07:13:32.803Z,7.45
2023-04-18T07:18:38.296Z,7.35
2023-04-18T07:23:41.704Z,7.53
2023-04-18T07:28:44.512Z,7.90
2023-04-18T07:33:48.700Z,7.18
2023-04-18T07:38:51.800Z,7.32
2023-04-18T07:43:54.589Z,7.13
2023-04-18T07:48:58.882Z,7.40
2023-04-18T07:54:02.127Z,7.43
2023-04-18T07:59:04.946Z,6.90
2023-04-18T08:04:09.281Z,6.93
2023-04-18T08:09:13.191Z,7.38
2023-04-18T08:14:16.334Z,6.70
2023-04-18T08:19:20.526Z,6.93
2023-04-18T08:24:23.338Z,7.50
2023-04-18T08:29:26.574Z,6.55
2023-04-18T08:34:34.089Z,6.88
2023-04-18T08:39:37.038Z,7.13
2023-04-18T08:44:39.798Z,6.63
2023-04-18T08:49:46.625Z,6.53
2023-04-18T08:54:51.923Z,6.90
2023-04-18T08:59:55.452Z,7.15
2023-04-18T09:04:59.631Z,6.88
2023-04-18T09:10:02.369Z,6.63
2023-04-18T09:15:13.701Z,7.30
2023-04-18T09:20:30.594Z,7.40
2023-04-18T09:25:41.286Z,7.10
2023-04-18T09:30:46.513Z,7.45
2023-04-18T09:35:51.857Z,7.88
2023-04-18T09:41:09.663Z,6.78
2023-04-18T09:46:12.829Z,7.80
2023-04-18T09:51:17.823Z,8.02
2023-04-18T09:56:25.659Z,7.40
2023-04-18T10:01:29.432Z,7.90
2023-04-18T10:06:35.454Z,6.10
2023-04-18T10:11:38.382Z,6.55
2023-04-18T10:16:42.061Z,6.38
2023-04-18T10:21:53.595Z,6.50
2023-04-18T10:26:56.543Z,5.93
2023-04-18T10:32:06.582Z,6.05
2023-04-18T10:37:12.756Z,6.10
2023-04-18T10:42:15.675Z,5.13
2023-04-18T10:47:27.582Z,5.05
2023-04-18T10:52:32.310Z,4.63
2023-04-18T10:57:43.358Z,4.70
2023-04-18T11:02:50.779Z,5.20
2023-04-18T11:07:55.708Z,5.80
2023-04-18T11:13:04.402Z,4.78
2023-04-18T11:18:07.251Z,5.35
2023-04-18T11:23:20.533Z,6.15
2023-04-18T11:28:24.790Z,7.15
2023-04-18T11:33:29.537Z,7.45
2023-04-18T11:38:34.539Z,7.53
2023-04-18T11:43:37.389Z,7.60
2023-04-18T11:48:42.225Z,7.53
2023-04-18T11:53:46.638Z,7.40
2023-04-18T11:58:49.498Z,5.97
2023-04-18T12:04:02.982Z,6.32
2023-04-18T12:09:07.847Z,5.55
2023-04-18T12:14:21.426Z,5.50
2023-04-18T12:19:27.574Z,5.55
2023-04-18T12:24:32.194Z,4.97
2023-04-18T12:29:35.084Z,5.55
2023-04-18T12:34:37.851Z,4.78
2023-04-18T12:39:41.926Z,5.47
2023-04-18T12:44:46.945Z,5.85
2023-04-18T12:49:51.040Z,5.90
2023-04-18T12:54:56.283Z,5.43
2023-04-18T12:59:59.101Z,5.10
2023-04-18T13:05:01.932Z,5.00
2023-04-18T13:10:07.547Z,4.78
2023-04-18T13:15:11.613Z,4.97
2023-04-18T13:20:14.345Z,4.68
2023-04-18T13:25:18.539Z,4.40
2023-04-18T13:30:21.493Z,4.65
2023-04-18T13:35:24.242Z,4.80
2023-04-18T13:40:28.458Z,4.47
2023-04-18T13:45:31.235Z,4.53
2023-04-18T13:50:33.986Z,4.57
2023-04-18T13:55:38.137Z,5.32
2023-04-18T14:00:40.937Z,4.97
2023-04-18T14:05:43.708Z,5.57
2023-04-18T14:10:47.852Z,5.18
2023-04-18T14:15:50.648Z,5.20
2023-04-18T14:20:53.441Z,5.47
2023-04-18T14:25:57.483Z,5.22
2023-04-18T14:31:02.090Z,5.40
2023-04-18T14:36:05.658Z,5.20
2023-04-18T14:41:09.958Z,5.90
2023-04-18T14:46:13.590Z,6.05
2023-04-18T14:51:17.042Z,5.47
2023-04-18T14:56:23.529Z,5.90
2023-04-18T15:01:26.394Z,5.43
2023-04-18T15:06:30.226Z,6.07
2023-04-18T15:11:34.329Z,6.20
2023-04-18T15:16:39.399Z,6.40
2023-04-18T15:21:42.140Z,7.07
2023-04-18T15:26:46.427Z,6.50
2023-04-18T15:31:49.298Z,6.30
2023-04-18T15:36:52.061Z,6.18
2023-04-18T15:41:56.520Z,6.93
2023-04-18T15:47:01.607Z,6.93
2023-04-18T15:52:06.279Z,6.60
2023-04-18T15:57:10.443Z,6.00
2023-04-18T16:02:13.211Z,5.72
2023-04-18T16:07:16.008Z,6.22
2023-04-18T16:12:20.478Z,5.63
2023-04-18T16:17:23.278Z,5.95
2023-04-18T16:22:26.112Z,5.85
2023-04-18T16:27:30.399Z,5.65
2023-04-18T16:32:33.196Z,5.53
2023-04-18T16:37:35.990Z,5.57
2023-04-18T16:42:41.049Z,6.50
2023-04-18T16:47:43.786Z,6.07
2023-04-18T16:52:46.584Z,4.90
2023-04-18T16:57:50.870Z,5.15
2023-04-18T17:02:55.646Z,5.55
2023-04-18T17:07:58.444Z,4.88
2023-04-18T17:13:03.527Z,5.07
2023-04-18T17:18:06.391Z,5.50
2023-04-18T17:23:09.228Z,6.40
2023-04-18T17:28:13.962Z,5.15
2023-04-18T17:33:16.752Z,4.90
2023-04-18T17:38:19.622Z,5.18
2023-04-18T17:43:23.849Z,5.10
2023-04-18T17:48:26.889Z,4.50
2023-04-18T17:53:31.544Z,4.38
2023-04-18T17:58:36.501Z,5.93
2023-04-18T18:03:39.582Z,5.85
2023-04-18T18:08:44.159Z,5.82
2023-04-18T18:13:51.878Z,5.25
2023-04-18T18:18:54.725Z,5.22
2023-04-18T18:23:57.576Z,5.18
2023-04-18T18:29:02.101Z,5.07
2023-04-18T18:34:05.160Z,5.22
2023-04-18T18:39:07.971Z,5.25
2023-04-18T18:44:12.873Z,5.07
2023-04-18T18:49:16.040Z,5.10
2023-04-18T18:54:18.963Z,5.82
2023-04-18T18:59:23.208Z,5.50
2023-04-18T19:04:26.100Z,5.43
2023-04-18T19:09:28.984Z,5.85
2023-04-18T19:14:33.106Z,6.00
2023-04-18T19:19:36.251Z,5.90
2023-04-18T19:24:39.036Z,5.78
2023-04-18T19:29:43.129Z,5.90
2023-04-18T19:34:45.884Z,5.88
2023-04-18T19:39:48.742Z,6.55
2023-04-18T19:44:53.081Z,7.28
2023-04-18T19:49:55.936Z,7.95
2023-04-18T19:54:58.708Z,7.25
2023-04-18T20:00:03.599Z,7.57
2023-04-18T20:05:15.432Z,7.25
2023-04-18T20:10:22.733Z,7.43
2023-04-18T20:15:27.125Z,6.68
2023-04-18T20:20:33.167Z,6.43
2023-04-18T20:25:35.991Z,6.03
2023-04-18T20:30:40.217Z,8.02
2023-04-18T20:35:44.203Z,8.55
2023-04-18T20:40:47.165Z,7.97
2023-04-18T20:45:51.859Z,7.05
2023-04-18T20:50:54.732Z,6.60
2023-04-18T20:55:57.445Z,6.30
2023-04-18T21:01:01.584Z,7.18
2023-04-18T21:06:04.589Z,7.15
2023-04-18T21:11:07.434Z,7.25
2023-04-18T21:16:11.860Z,7.40
2023-04-18T21:21:14.577Z,7.70
2023-04-18T21:26:17.453Z,7.40
2023-04-18T21:31:21.590Z,8.32
2023-04-18T21:36:26.378Z,7.75
2023-04-18T21:41:29.409Z,6.70
2023-04-18T21:46:33.595Z,7.28
2023-04-18T21:51:36.346Z,6.88
2023-04-18T21:56:39.143Z,8.00
2023-04-18T22:01:43.906Z,7.40
2023-04-18T22:06:46.724Z,7.47
2023-04-18T22:11:51.079Z,6.32
2023-04-18T22:16:55.514Z,6.88
2023-04-18T22:21:58.361Z,6.72
2023-04-18T22:27:02.761Z,7.50
2023-04-18T22:32:06.956Z,6.75
2023-04-18T22:37:09.741Z,6.72
2023-04-18T22:42:12.501Z,6.85
2023-04-18T22:47:16.729Z,6.40
2023-04-18T22:52:19.653Z,6.50
2023-04-18T22:57:22.422Z,6.78
2023-04-18T23:02:26.738Z,6.45
2023-04-18T23:07:29.763Z,6.95
2023-04-18T23:12:32.505Z,5.90
2023-04-18T23:17:36.659Z,5.57
2023-04-18T23:22:39.515Z,5.68
2023-04-18T23:27:42.334Z,5.47
2023-04-18T23:32:46.490Z,5.78
2023-04-18T23:37:50.100Z,5.43
2023-04-18T23:42:53.080Z,5.18
2023-04-18T23:47:57.237Z,5.13
2023-04-18T23:53:00.020Z,5.07
2023-04-18T23:58:02.782Z,5.25
